sensor_id;sensor_type;location;lat;lon;timestamp;P1;durP1;ratioP1;P2;durP2;ratioP2
10088;SDS011;51898;49.864;8.550;2023-02-12T00:02:20;50.33;;;29.80;;
10088;SDS011;51898;49.864;8.550;2023-02-12T00:05:22;48.30;;;28.17;;
10088;SDS011;51898;49.864;8.550;2023-02-12T00:08:23;47.33;;;28.70;;
10088;SDS011;51898;49.864;8.550;2023-02-12T00:11:26;44.93;;;27.57;;
10088;SDS011;51898;49.864;8.550;2023-02-12T00:14:29;39.07;;;25.97;;
10088;SDS011;51898;49.864;8.550;2023-02-12T00:17:30;46.47;;;26.13;;
10088;SDS011;51898;49.864;8.550;2023-02-12T00:20:32;44.67;;;26.17;;
10088;SDS011;51898;49.864;8.550;2023-02-12T00:23:34;42.77;;;24.70;;
10088;SDS011;51898;49.864;8.550;2023-02-12T00:26:37;39.10;;;25.60;;
10088;SDS011;51898;49.864;8.550;2023-02-12T00:29:39;41.53;;;24.30;;
10088;SDS011;51898;49.864;8.550;2023-02-12T00:32:40;44.13;;;26.50;;
10088;SDS011;51898;49.864;8.550;2023-02-12T00:35:43;39.37;;;24.43;;
10088;SDS011;51898;49.864;8.550;2023-02-12T00:38:45;36.63;;;22.93;;
10088;SDS011;51898;49.864;8.550;2023-02-12T00:41:48;40.70;;;23.23;;
10088;SDS011;51898;49.864;8.550;2023-02-12T00:44:49;39.70;;;21.80;;
10088;SDS011;51898;49.864;8.550;2023-02-12T00:47:51;39.67;;;22.57;;
10088;SDS011;51898;49.864;8.550;2023-02-12T00:50:53;34.87;;;21.50;;
10088;SDS011;51898;49.864;8.550;2023-02-12T00:53:54;36.87;;;21.90;;
10088;SDS011;51898;49.864;8.550;2023-02-12T00:56:56;32.00;;;21.67;;
10088;SDS011;51898;49.864;8.550;2023-02-12T00:59:59;44.47;;;23.00;;
10088;SDS011;51898;49.864;8.550;2023-02-12T01:03:00;40.53;;;23.57;;
10088;SDS011;51898;49.864;8.550;2023-02-12T01:06:02;37.23;;;22.80;;
10088;SDS011;51898;49.864;8.550;2023-02-12T01:09:07;40.70;;;23.60;;
10088;SDS011;51898;49.864;8.550;2023-02-12T01:12:09;39.87;;;24.47;;
10088;SDS011;51898;49.864;8.550;2023-02-12T01:15:10;39.80;;;24.47;;
10088;SDS011;51898;49.864;8.550;2023-02-12T01:18:12;37.83;;;23.30;;
10088;SDS011;51898;49.864;8.550;2023-02-12T01:21:17;41.50;;;23.87;;
10088;SDS011;51898;49.864;8.550;2023-02-12T01:24:29;40.70;;;24.07;;
10088;SDS011;51898;49.864;8.550;2023-02-12T01:27:31;39.07;;;22.67;;
10088;SDS011;51898;49.864;8.550;2023-02-12T01:30:33;39.53;;;24.03;;
10088;SDS011;51898;49.864;8.550;2023-02-12T01:33:35;43.90;;;24.67;;
10088;SDS011;51898;49.864;8.550;2023-02-12T01:36:36;38.90;;;24.57;;
10088;SDS011;51898;49.864;8.550;2023-02-12T01:39:38;39.17;;;23.10;;
10088;SDS011;51898;49.864;8.550;2023-02-12T01:42:40;36.03;;;22.80;;
10088;SDS011;51898;49.864;8.550;2023-02-12T01:45:46;35.13;;;23.30;;
10088;SDS011;51898;49.864;8.550;2023-02-12T01:48:50;40.80;;;24.13;;
10088;SDS011;51898;49.864;8.550;2023-02-12T01:51:57;36.40;;;22.40;;
10088;SDS011;51898;49.864;8.550;2023-02-12T01:55:02;37.50;;;22.77;;
10088;SDS011;51898;49.864;8.550;2023-02-12T01:58:06;38.80;;;22.90;;
10088;SDS011;51898;49.864;8.550;2023-02-12T02:04:27;35.77;;;23.47;;
10088;SDS011;51898;49.864;8.550;2023-02-12T02:07:32;38.77;;;24.17;;
10088;SDS011;51898;49.864;8.550;2023-02-12T02:10:34;36.67;;;23.00;;
10088;SDS011;51898;49.864;8.550;2023-02-12T02:13:35;40.67;;;23.80;;
10088;SDS011;51898;49.864;8.550;2023-02-12T02:27:19;35.00;;;23.03;;
10088;SDS011;51898;49.864;8.550;2023-02-12T02:30:49;46.37;;;25.23;;
10088;SDS011;51898;49.864;8.550;2023-02-12T02:33:58;42.60;;;25.87;;
10088;SDS011;51898;49.864;8.550;2023-02-12T02:37:27;39.00;;;24.10;;
10088;SDS011;51898;49.864;8.550;2023-02-12T02:40:51;34.03;;;22.93;;
10088;SDS011;51898;49.864;8.550;2023-02-12T02:44:06;36.93;;;22.80;;
10088;SDS011;51898;49.864;8.550;2023-02-12T02:47:13;34.80;;;21.67;;
10088;SDS011;51898;49.864;8.550;2023-02-12T02:50:19;35.63;;;22.70;;
10088;SDS011;51898;49.864;8.550;2023-02-12T02:53:29;39.37;;;23.03;;
10088;SDS011;51898;49.864;8.550;2023-02-12T02:56:34;34.03;;;22.10;;
10088;SDS011;51898;49.864;8.550;2023-02-12T02:59:40;35.13;;;22.57;;
10088;SDS011;51898;49.864;8.550;2023-02-12T03:02:48;37.87;;;23.17;;
10088;SDS011;51898;49.864;8.550;2023-02-12T03:05:54;39.97;;;24.10;;
10088;SDS011;51898;49.864;8.550;2023-02-12T03:09:03;34.60;;;22.90;;
10088;SDS011;51898;49.864;8.550;2023-02-12T03:12:13;40.10;;;23.83;;
10088;SDS011;51898;49.864;8.550;2023-02-12T03:18:27;41.07;;;24.73;;
10088;SDS011;51898;49.864;8.550;2023-02-12T03:21:36;43.77;;;24.43;;
10088;SDS011;51898;49.864;8.550;2023-02-12T03:24:43;36.63;;;24.17;;
10088;SDS011;51898;49.864;8.550;2023-02-12T03:27:53;37.00;;;23.77;;
10088;SDS011;51898;49.864;8.550;2023-02-12T03:31:31;44.83;;;23.40;;
10088;SDS011;51898;49.864;8.550;2023-02-12T03:41:23;39.50;;;24.17;;
10088;SDS011;51898;49.864;8.550;2023-02-12T03:44:36;37.10;;;22.80;;
10088;SDS011;51898;49.864;8.550;2023-02-12T03:48:00;36.37;;;22.50;;
10088;SDS011;51898;49.864;8.550;2023-02-12T03:51:04;38.87;;;22.97;;
10088;SDS011;51898;49.864;8.550;2023-02-12T03:54:29;39.00;;;23.87;;
10088;SDS011;51898;49.864;8.550;2023-02-12T03:57:32;37.50;;;23.97;;
10088;SDS011;51898;49.864;8.550;2023-02-12T04:00:40;37.27;;;23.70;;
10088;SDS011;51898;49.864;8.550;2023-02-12T04:03:43;35.60;;;22.20;;
10088;SDS011;51898;49.864;8.550;2023-02-12T04:06:45;38.40;;;23.50;;
10088;SDS011;51898;49.864;8.550;2023-02-12T04:09:49;39.17;;;23.57;;
10088;SDS011;51898;49.864;8.550;2023-02-12T04:12:56;35.33;;;23.17;;
10088;SDS011;51898;49.864;8.550;2023-02-12T04:26:20;36.03;;;23.10;;
10088;SDS011;51898;49.864;8.550;2023-02-12T04:33:03;38.37;;;22.87;;
10088;SDS011;51898;49.864;8.550;2023-02-12T04:36:12;42.17;;;24.77;;
10088;SDS011;51898;49.864;8.550;2023-02-12T04:39:20;39.67;;;22.30;;
10088;SDS011;51898;49.864;8.550;2023-02-12T04:42:25;40.97;;;22.53;;
10088;SDS011;51898;49.864;8.550;2023-02-12T04:45:31;38.17;;;23.07;;
10088;SDS011;51898;49.864;8.550;2023-02-12T04:48:36;44.50;;;24.13;;
10088;SDS011;51898;49.864;8.550;2023-02-12T04:51:44;38.00;;;23.07;;
10088;SDS011;51898;49.864;8.550;2023-02-12T04:54:46;39.27;;;24.07;;
10088;SDS011;51898;49.864;8.550;2023-02-12T04:57:48;39.77;;;25.13;;
10088;SDS011;51898;49.864;8.550;2023-02-12T05:00:50;40.07;;;25.00;;
10088;SDS011;51898;49.864;8.550;2023-02-12T05:03:51;43.70;;;26.23;;
10088;SDS011;51898;49.864;8.550;2023-02-12T05:06:53;41.33;;;24.40;;
10088;SDS011;51898;49.864;8.550;2023-02-12T05:09:55;41.83;;;24.53;;
10088;SDS011;51898;49.864;8.550;2023-02-12T05:12:56;41.90;;;25.30;;
10088;SDS011;51898;49.864;8.550;2023-02-12T05:15:58;41.60;;;25.17;;
10088;SDS011;51898;49.864;8.550;2023-02-12T05:19:00;35.90;;;23.40;;
10088;SDS011;51898;49.864;8.550;2023-02-12T05:22:02;39.70;;;23.57;;
10088;SDS011;51898;49.864;8.550;2023-02-12T05:25:04;40.13;;;22.87;;
10088;SDS011;51898;49.864;8.550;2023-02-12T05:28:06;43.43;;;23.73;;
10088;SDS011;51898;49.864;8.550;2023-02-12T05:31:09;44.03;;;24.97;;
10088;SDS011;51898;49.864;8.550;2023-02-12T05:34:14;42.10;;;24.73;;
10088;SDS011;51898;49.864;8.550;2023-02-12T05:37:15;41.97;;;24.40;;
10088;SDS011;51898;49.864;8.550;2023-02-12T05:40:17;35.43;;;23.93;;
10088;SDS011;51898;49.864;8.550;2023-02-12T05:43:19;42.60;;;25.17;;
10088;SDS011;51898;49.864;8.550;2023-02-12T05:46:20;40.77;;;25.30;;
10088;SDS011;51898;49.864;8.550;2023-02-12T05:49:22;40.87;;;24.33;;
10088;SDS011;51898;49.864;8.550;2023-02-12T05:52:24;35.67;;;23.63;;
10088;SDS011;51898;49.864;8.550;2023-02-12T05:55:25;39.40;;;24.27;;
10088;SDS011;51898;49.864;8.550;2023-02-12T05:58:27;39.30;;;24.00;;
10088;SDS011;51898;49.864;8.550;2023-02-12T06:01:30;41.40;;;24.17;;
10088;SDS011;51898;49.864;8.550;2023-02-12T06:04:36;46.90;;;31.33;;
10088;SDS011;51898;49.864;8.550;2023-02-12T06:07:38;52.83;;;41.07;;
10088;SDS011;51898;49.864;8.550;2023-02-12T06:10:40;46.00;;;32.57;;
10088;SDS011;51898;49.864;8.550;2023-02-12T06:13:41;40.00;;;25.40;;
10088;SDS011;51898;49.864;8.550;2023-02-12T06:16:44;39.27;;;24.73;;
10088;SDS011;51898;49.864;8.550;2023-02-12T06:19:47;41.20;;;25.80;;
10088;SDS011;51898;49.864;8.550;2023-02-12T06:22:48;39.10;;;24.60;;
10088;SDS011;51898;49.864;8.550;2023-02-12T06:25:53;40.67;;;26.23;;
10088;SDS011;51898;49.864;8.550;2023-02-12T06:28:57;38.53;;;25.10;;
10088;SDS011;51898;49.864;8.550;2023-02-12T06:31:59;37.03;;;23.47;;
10088;SDS011;51898;49.864;8.550;2023-02-12T06:35:00;40.33;;;24.63;;
10088;SDS011;51898;49.864;8.550;2023-02-12T06:38:02;42.60;;;24.87;;
10088;SDS011;51898;49.864;8.550;2023-02-12T06:41:04;49.23;;;26.90;;
10088;SDS011;51898;49.864;8.550;2023-02-12T06:44:06;47.47;;;26.57;;
10088;SDS011;51898;49.864;8.550;2023-02-12T06:47:08;40.70;;;23.90;;
10088;SDS011;51898;49.864;8.550;2023-02-12T06:50:10;44.03;;;26.80;;
10088;SDS011;51898;49.864;8.550;2023-02-12T06:53:12;43.57;;;25.63;;
10088;SDS011;51898;49.864;8.550;2023-02-12T06:56:13;41.40;;;23.97;;
10088;SDS011;51898;49.864;8.550;2023-02-12T06:59:15;40.30;;;25.00;;
10088;SDS011;51898;49.864;8.550;2023-02-12T07:02:17;41.10;;;23.90;;
10088;SDS011;51898;49.864;8.550;2023-02-12T07:05:19;41.13;;;24.37;;
10088;SDS011;51898;49.864;8.550;2023-02-12T07:08:20;39.87;;;22.07;;
10088;SDS011;51898;49.864;8.550;2023-02-12T07:11:25;40.30;;;24.63;;
10088;SDS011;51898;49.864;8.550;2023-02-12T07:14:28;43.00;;;24.50;;
10088;SDS011;51898;49.864;8.550;2023-02-12T07:17:30;44.23;;;25.30;;
10088;SDS011;51898;49.864;8.550;2023-02-12T07:20:32;46.10;;;24.87;;
10088;SDS011;51898;49.864;8.550;2023-02-12T07:23:34;43.00;;;27.00;;
10088;SDS011;51898;49.864;8.550;2023-02-12T07:26:36;43.77;;;25.43;;
10088;SDS011;51898;49.864;8.550;2023-02-12T07:29:38;46.47;;;26.67;;
10088;SDS011;51898;49.864;8.550;2023-02-12T07:32:40;53.30;;;27.20;;
10088;SDS011;51898;49.864;8.550;2023-02-12T07:35:41;50.03;;;27.33;;
10088;SDS011;51898;49.864;8.550;2023-02-12T07:38:43;54.37;;;32.03;;
10088;SDS011;51898;49.864;8.550;2023-02-12T07:41:45;46.70;;;27.23;;
10088;SDS011;51898;49.864;8.550;2023-02-12T07:44:47;48.00;;;28.30;;
10088;SDS011;51898;49.864;8.550;2023-02-12T07:47:49;45.63;;;26.30;;
10088;SDS011;51898;49.864;8.550;2023-02-12T07:50:51;46.53;;;25.37;;
10088;SDS011;51898;49.864;8.550;2023-02-12T07:53:53;44.00;;;25.57;;
10088;SDS011;51898;49.864;8.550;2023-02-12T07:56:55;43.67;;;24.30;;
10088;SDS011;51898;49.864;8.550;2023-02-12T07:59:56;43.23;;;25.73;;
10088;SDS011;51898;49.864;8.550;2023-02-12T08:02:58;47.60;;;25.53;;
10088;SDS011;51898;49.864;8.550;2023-02-12T08:05:59;40.87;;;25.90;;
10088;SDS011;51898;49.864;8.550;2023-02-12T08:09:07;46.67;;;27.40;;
10088;SDS011;51898;49.864;8.550;2023-02-12T08:12:10;48.20;;;27.00;;
10088;SDS011;51898;49.864;8.550;2023-02-12T08:15:12;40.63;;;25.23;;
10088;SDS011;51898;49.864;8.550;2023-02-12T08:18:14;46.50;;;27.83;;
10088;SDS011;51898;49.864;8.550;2023-02-12T08:21:16;45.87;;;27.90;;
10088;SDS011;51898;49.864;8.550;2023-02-12T08:24:20;46.67;;;26.87;;
10088;SDS011;51898;49.864;8.550;2023-02-12T08:27:22;50.30;;;26.47;;
10088;SDS011;51898;49.864;8.550;2023-02-12T08:30:24;48.27;;;26.00;;
10088;SDS011;51898;49.864;8.550;2023-02-12T08:33:25;47.20;;;25.60;;
10088;SDS011;51898;49.864;8.550;2023-02-12T08:36:28;45.40;;;27.83;;
10088;SDS011;51898;49.864;8.550;2023-02-12T08:39:31;44.30;;;27.00;;
10088;SDS011;51898;49.864;8.550;2023-02-12T08:42:33;44.50;;;25.63;;
10088;SDS011;51898;49.864;8.550;2023-02-12T08:45:35;50.53;;;29.27;;
10088;SDS011;51898;49.864;8.550;2023-02-12T08:48:37;46.33;;;27.90;;
10088;SDS011;51898;49.864;8.550;2023-02-12T08:51:43;47.90;;;28.40;;
10088;SDS011;51898;49.864;8.550;2023-02-12T08:54:46;50.00;;;28.80;;
10088;SDS011;51898;49.864;8.550;2023-02-12T08:57:47;53.43;;;29.60;;
10088;SDS011;51898;49.864;8.550;2023-02-12T09:00:49;54.43;;;31.27;;
10088;SDS011;51898;49.864;8.550;2023-02-12T09:03:51;55.27;;;28.20;;
10088;SDS011;51898;49.864;8.550;2023-02-12T09:06:53;52.33;;;29.40;;
10088;SDS011;51898;49.864;8.550;2023-02-12T09:09:55;54.60;;;30.03;;
10088;SDS011;51898;49.864;8.550;2023-02-12T09:12:57;59.23;;;30.87;;
10088;SDS011;51898;49.864;8.550;2023-02-12T09:15:59;58.10;;;30.60;;
10088;SDS011;51898;49.864;8.550;2023-02-12T09:19:03;67.33;;;32.03;;
10088;SDS011;51898;49.864;8.550;2023-02-12T09:22:04;64.27;;;31.43;;
10088;SDS011;51898;49.864;8.550;2023-02-12T09:25:06;65.63;;;29.47;;
10088;SDS011;51898;49.864;8.550;2023-02-12T09:28:08;65.30;;;30.47;;
10088;SDS011;51898;49.864;8.550;2023-02-12T09:31:12;62.50;;;30.40;;
10088;SDS011;51898;49.864;8.550;2023-02-12T09:34:16;64.53;;;30.73;;
10088;SDS011;51898;49.864;8.550;2023-02-12T09:37:17;58.40;;;29.97;;
10088;SDS011;51898;49.864;8.550;2023-02-12T09:40:20;64.60;;;30.47;;
10088;SDS011;51898;49.864;8.550;2023-02-12T09:46:58;60.33;;;28.37;;
10088;SDS011;51898;49.864;8.550;2023-02-12T09:53:43;57.43;;;27.63;;
10088;SDS011;51898;49.864;8.550;2023-02-12T09:56:54;57.53;;;26.97;;
10088;SDS011;51898;49.864;8.550;2023-02-12T10:00:06;60.00;;;27.00;;
10088;SDS011;51898;49.864;8.550;2023-02-12T10:03:15;52.97;;;25.17;;
10088;SDS011;51898;49.864;8.550;2023-02-12T10:06:23;53.70;;;26.13;;
10088;SDS011;51898;49.864;8.550;2023-02-12T10:09:39;55.37;;;24.57;;
10088;SDS011;51898;49.864;8.550;2023-02-12T10:16:08;60.03;;;25.83;;
10088;SDS011;51898;49.864;8.550;2023-02-12T10:19:38;54.10;;;25.90;;
10088;SDS011;51898;49.864;8.550;2023-02-12T10:26:46;43.97;;;22.40;;
10088;SDS011;51898;49.864;8.550;2023-02-12T10:29:49;47.00;;;22.47;;
10088;SDS011;51898;49.864;8.550;2023-02-12T10:32:53;43.00;;;22.47;;
10088;SDS011;51898;49.864;8.550;2023-02-12T10:39:40;49.93;;;22.70;;
10088;SDS011;51898;49.864;8.550;2023-02-12T10:42:49;47.77;;;23.80;;
10088;SDS011;51898;49.864;8.550;2023-02-12T10:45:52;41.70;;;21.43;;
10088;SDS011;51898;49.864;8.550;2023-02-12T10:48:55;49.53;;;22.80;;
10088;SDS011;51898;49.864;8.550;2023-02-12T10:52:17;48.57;;;23.20;;
10088;SDS011;51898;49.864;8.550;2023-02-12T10:55:34;40.97;;;23.40;;
10088;SDS011;51898;49.864;8.550;2023-02-12T10:58:40;45.60;;;24.17;;
10088;SDS011;51898;49.864;8.550;2023-02-12T11:01:51;41.60;;;21.97;;
10088;SDS011;51898;49.864;8.550;2023-02-12T11:04:53;47.30;;;23.17;;
10088;SDS011;51898;49.864;8.550;2023-02-12T11:07:56;35.97;;;19.87;;
10088;SDS011;51898;49.864;8.550;2023-02-12T11:11:02;36.73;;;20.40;;
10088;SDS011;51898;49.864;8.550;2023-02-12T11:14:26;36.30;;;19.00;;
10088;SDS011;51898;49.864;8.550;2023-02-12T11:17:38;43.27;;;21.07;;
10088;SDS011;51898;49.864;8.550;2023-02-12T11:20:49;40.20;;;19.60;;
10088;SDS011;51898;49.864;8.550;2023-02-12T11:23:52;42.17;;;21.50;;
10088;SDS011;51898;49.864;8.550;2023-02-12T11:27:07;41.97;;;20.43;;
10088;SDS011;51898;49.864;8.550;2023-02-12T11:30:22;41.57;;;21.43;;
10088;SDS011;51898;49.864;8.550;2023-02-12T11:33:25;41.00;;;22.03;;
10088;SDS011;51898;49.864;8.550;2023-02-12T11:36:28;40.50;;;21.23;;
10088;SDS011;51898;49.864;8.550;2023-02-12T11:39:35;41.13;;;21.37;;
10088;SDS011;51898;49.864;8.550;2023-02-12T11:42:39;36.07;;;19.60;;
10088;SDS011;51898;49.864;8.550;2023-02-12T11:45:47;41.90;;;21.43;;
10088;SDS011;51898;49.864;8.550;2023-02-12T11:48:52;48.63;;;23.10;;
10088;SDS011;51898;49.864;8.550;2023-02-12T11:51:57;42.20;;;23.53;;
10088;SDS011;51898;49.864;8.550;2023-02-12T11:55:04;42.97;;;21.23;;
10088;SDS011;51898;49.864;8.550;2023-02-12T11:58:15;40.20;;;22.40;;
10088;SDS011;51898;49.864;8.550;2023-02-12T12:01:29;45.13;;;22.67;;
10088;SDS011;51898;49.864;8.550;2023-02-12T12:04:35;44.47;;;22.70;;
10088;SDS011;51898;49.864;8.550;2023-02-12T12:07:42;44.47;;;22.40;;
10088;SDS011;51898;49.864;8.550;2023-02-12T12:10:50;39.27;;;20.03;;
10088;SDS011;51898;49.864;8.550;2023-02-12T12:14:07;46.33;;;25.60;;
10088;SDS011;51898;49.864;8.550;2023-02-12T12:17:20;39.60;;;21.33;;
10088;SDS011;51898;49.864;8.550;2023-02-12T12:20:51;39.47;;;19.23;;
10088;SDS011;51898;49.864;8.550;2023-02-12T12:23:59;37.23;;;20.00;;
10088;SDS011;51898;49.864;8.550;2023-02-12T12:27:11;25.40;;;14.37;;
10088;SDS011;51898;49.864;8.550;2023-02-12T12:30:54;34.03;;;18.00;;
10088;SDS011;51898;49.864;8.550;2023-02-12T12:34:17;31.50;;;17.60;;
10088;SDS011;51898;49.864;8.550;2023-02-12T12:37:30;34.67;;;17.40;;
10088;SDS011;51898;49.864;8.550;2023-02-12T12:40:56;27.23;;;15.87;;
10088;SDS011;51898;49.864;8.550;2023-02-12T12:58:22;34.23;;;18.00;;
10088;SDS011;51898;49.864;8.550;2023-02-12T13:05:23;34.70;;;18.20;;
10088;SDS011;51898;49.864;8.550;2023-02-12T13:12:21;32.20;;;17.50;;
10088;SDS011;51898;49.864;8.550;2023-02-12T13:15:38;32.47;;;17.13;;
10088;SDS011;51898;49.864;8.550;2023-02-12T13:19:10;33.23;;;19.07;;
10088;SDS011;51898;49.864;8.550;2023-02-12T13:22:23;36.53;;;17.53;;
10088;SDS011;51898;49.864;8.550;2023-02-12T13:29:12;32.67;;;18.17;;
10088;SDS011;51898;49.864;8.550;2023-02-12T13:32:31;33.47;;;18.03;;
10088;SDS011;51898;49.864;8.550;2023-02-12T13:35:39;38.63;;;19.87;;
10088;SDS011;51898;49.864;8.550;2023-02-12T13:38:47;38.00;;;20.17;;
10088;SDS011;51898;49.864;8.550;2023-02-12T13:41:59;39.10;;;20.50;;
10088;SDS011;51898;49.864;8.550;2023-02-12T13:48:51;29.20;;;17.53;;
10088;SDS011;51898;49.864;8.550;2023-02-12T13:52:00;27.40;;;15.17;;
10088;SDS011;51898;49.864;8.550;2023-02-12T14:01:39;30.47;;;17.30;;
10088;SDS011;51898;49.864;8.550;2023-02-12T14:07:53;32.17;;;18.63;;
10088;SDS011;51898;49.864;8.550;2023-02-12T14:11:20;32.77;;;17.90;;
10088;SDS011;51898;49.864;8.550;2023-02-12T14:14:25;27.73;;;15.50;;
10088;SDS011;51898;49.864;8.550;2023-02-12T14:20:34;26.03;;;15.93;;
10088;SDS011;51898;49.864;8.550;2023-02-12T14:23:38;28.43;;;16.90;;
10088;SDS011;51898;49.864;8.550;2023-02-12T14:26:43;26.20;;;15.20;;
10088;SDS011;51898;49.864;8.550;2023-02-12T14:30:01;31.27;;;17.23;;
10088;SDS011;51898;49.864;8.550;2023-02-12T14:45:34;24.20;;;13.70;;
10088;SDS011;51898;49.864;8.550;2023-02-12T14:48:44;27.50;;;15.03;;
10088;SDS011;51898;49.864;8.550;2023-02-12T14:52:02;23.10;;;14.20;;
10088;SDS011;51898;49.864;8.550;2023-02-12T14:55:22;29.63;;;15.57;;
10088;SDS011;51898;49.864;8.550;2023-02-12T14:58:30;29.73;;;17.27;;
10088;SDS011;51898;49.864;8.550;2023-02-12T15:01:33;29.60;;;15.90;;
10088;SDS011;51898;49.864;8.550;2023-02-12T15:04:36;24.77;;;15.50;;
10088;SDS011;51898;49.864;8.550;2023-02-12T15:07:43;30.87;;;17.27;;
10088;SDS011;51898;49.864;8.550;2023-02-12T15:10:50;28.20;;;16.40;;
10088;SDS011;51898;49.864;8.550;2023-02-12T15:17:19;31.37;;;18.47;;
10088;SDS011;51898;49.864;8.550;2023-02-12T15:20:43;30.80;;;16.40;;
10088;SDS011;51898;49.864;8.550;2023-02-12T15:27:05;28.03;;;16.20;;
10088;SDS011;51898;49.864;8.550;2023-02-12T15:30:12;32.03;;;17.57;;
10088;SDS011;51898;49.864;8.550;2023-02-12T15:33:27;29.13;;;18.00;;
10088;SDS011;51898;49.864;8.550;2023-02-12T15:36:31;34.87;;;18.20;;
10088;SDS011;51898;49.864;8.550;2023-02-12T15:39:38;30.43;;;17.23;;
10088;SDS011;51898;49.864;8.550;2023-02-12T15:42:56;30.73;;;17.80;;
10088;SDS011;51898;49.864;8.550;2023-02-12T15:46:01;35.70;;;20.87;;
10088;SDS011;51898;49.864;8.550;2023-02-12T15:49:28;34.60;;;19.07;;
10088;SDS011;51898;49.864;8.550;2023-02-12T15:52:33;37.23;;;20.50;;
10088;SDS011;51898;49.864;8.550;2023-02-12T15:55:38;30.97;;;18.23;;
10088;SDS011;51898;49.864;8.550;2023-02-12T15:58:48;39.43;;;20.53;;
10088;SDS011;51898;49.864;8.550;2023-02-12T16:01:53;33.57;;;18.67;;
10088;SDS011;51898;49.864;8.550;2023-02-12T16:05:01;34.10;;;18.97;;
10088;SDS011;51898;49.864;8.550;2023-02-12T16:08:04;33.60;;;19.30;;
10088;SDS011;51898;49.864;8.550;2023-02-12T16:11:07;36.17;;;19.53;;
10088;SDS011;51898;49.864;8.550;2023-02-12T16:14:21;31.30;;;18.87;;
10088;SDS011;51898;49.864;8.550;2023-02-12T16:17:35;29.50;;;17.73;;
10088;SDS011;51898;49.864;8.550;2023-02-12T16:20:38;37.40;;;19.33;;
10088;SDS011;51898;49.864;8.550;2023-02-12T16:23:43;31.60;;;19.07;;
10088;SDS011;51898;49.864;8.550;2023-02-12T16:26:46;34.23;;;19.10;;
10088;SDS011;51898;49.864;8.550;2023-02-12T16:29:49;38.43;;;18.67;;
10088;SDS011;51898;49.864;8.550;2023-02-12T16:32:58;30.83;;;17.27;;
10088;SDS011;51898;49.864;8.550;2023-02-12T16:36:01;30.70;;;18.40;;
10088;SDS011;51898;49.864;8.550;2023-02-12T16:39:05;28.47;;;18.00;;
10088;SDS011;51898;49.864;8.550;2023-02-12T16:42:36;28.97;;;16.77;;
10088;SDS011;51898;49.864;8.550;2023-02-12T16:46:00;27.97;;;17.03;;
10088;SDS011;51898;49.864;8.550;2023-02-12T16:49:05;27.93;;;16.67;;
10088;SDS011;51898;49.864;8.550;2023-02-12T16:52:19;33.63;;;17.60;;
10088;SDS011;51898;49.864;8.550;2023-02-12T16:55:42;29.17;;;16.13;;
10088;SDS011;51898;49.864;8.550;2023-02-12T16:58:44;30.77;;;17.57;;
10088;SDS011;51898;49.864;8.550;2023-02-12T17:01:57;27.90;;;16.97;;
10088;SDS011;51898;49.864;8.550;2023-02-12T17:05:04;31.57;;;17.20;;
10088;SDS011;51898;49.864;8.550;2023-02-12T17:08:14;26.50;;;15.57;;
10088;SDS011;51898;49.864;8.550;2023-02-12T17:11:18;34.03;;;17.83;;
10088;SDS011;51898;49.864;8.550;2023-02-12T17:14:21;27.27;;;16.70;;
10088;SDS011;51898;49.864;8.550;2023-02-12T17:17:22;25.60;;;16.07;;
10088;SDS011;51898;49.864;8.550;2023-02-12T17:20:24;29.83;;;16.00;;
10088;SDS011;51898;49.864;8.550;2023-02-12T17:23:26;28.63;;;15.30;;
10088;SDS011;51898;49.864;8.550;2023-02-12T17:26:28;28.07;;;16.87;;
10088;SDS011;51898;49.864;8.550;2023-02-12T17:29:30;29.50;;;15.43;;
10088;SDS011;51898;49.864;8.550;2023-02-12T17:32:31;27.57;;;16.50;;
10088;SDS011;51898;49.864;8.550;2023-02-12T17:35:33;29.47;;;17.10;;
10088;SDS011;51898;49.864;8.550;2023-02-12T17:38:35;26.53;;;15.10;;
10088;SDS011;51898;49.864;8.550;2023-02-12T17:41:37;25.17;;;14.53;;
10088;SDS011;51898;49.864;8.550;2023-02-12T17:44:38;33.07;;;16.20;;
10088;SDS011;51898;49.864;8.550;2023-02-12T17:47:41;28.90;;;15.00;;
10088;SDS011;51898;49.864;8.550;2023-02-12T17:50:43;32.97;;;15.10;;
10088;SDS011;51898;49.864;8.550;2023-02-12T17:53:45;28.93;;;16.37;;
10088;SDS011;51898;49.864;8.550;2023-02-12T17:56:47;26.60;;;16.10;;
10088;SDS011;51898;49.864;8.550;2023-02-12T17:59:49;28.03;;;16.50;;
10088;SDS011;51898;49.864;8.550;2023-02-12T18:02:50;29.20;;;16.60;;
10088;SDS011;51898;49.864;8.550;2023-02-12T18:05:52;34.03;;;18.17;;
10088;SDS011;51898;49.864;8.550;2023-02-12T18:08:54;32.50;;;18.77;;
10088;SDS011;51898;49.864;8.550;2023-02-12T18:11:57;39.67;;;20.60;;
10088;SDS011;51898;49.864;8.550;2023-02-12T18:15:00;31.43;;;17.27;;
10088;SDS011;51898;49.864;8.550;2023-02-12T18:18:03;36.60;;;18.43;;
10088;SDS011;51898;49.864;8.550;2023-02-12T18:21:08;36.80;;;18.80;;
10088;SDS011;51898;49.864;8.550;2023-02-12T18:24:11;30.00;;;17.10;;
10088;SDS011;51898;49.864;8.550;2023-02-12T18:27:14;30.00;;;17.23;;
10088;SDS011;51898;49.864;8.550;2023-02-12T18:30:16;39.47;;;17.17;;
10088;SDS011;51898;49.864;8.550;2023-02-12T18:33:18;33.30;;;17.47;;
10088;SDS011;51898;49.864;8.550;2023-02-12T18:36:21;41.77;;;18.20;;
10088;SDS011;51898;49.864;8.550;2023-02-12T18:39:23;35.67;;;18.77;;
10088;SDS011;51898;49.864;8.550;2023-02-12T18:42:25;33.80;;;17.70;;
10088;SDS011;51898;49.864;8.550;2023-02-12T18:45:28;28.90;;;16.20;;
10088;SDS011;51898;49.864;8.550;2023-02-12T18:48:30;32.10;;;17.40;;
10088;SDS011;51898;49.864;8.550;2023-02-12T18:52:48;31.70;;;16.40;;
10088;SDS011;51898;49.864;8.550;2023-02-12T18:55:49;32.73;;;16.07;;
10088;SDS011;51898;49.864;8.550;2023-02-12T18:58:56;32.40;;;16.23;;
10088;SDS011;51898;49.864;8.550;2023-02-12T19:01:58;29.50;;;16.97;;
10088;SDS011;51898;49.864;8.550;2023-02-12T19:05:04;36.53;;;16.63;;
10088;SDS011;51898;49.864;8.550;2023-02-12T19:08:06;30.97;;;16.40;;
10088;SDS011;51898;49.864;8.550;2023-02-12T19:11:10;33.03;;;16.80;;
10088;SDS011;51898;49.864;8.550;2023-02-12T19:14:15;32.33;;;16.33;;
10088;SDS011;51898;49.864;8.550;2023-02-12T19:17:19;33.67;;;18.60;;
10088;SDS011;51898;49.864;8.550;2023-02-12T19:20:20;32.83;;;17.37;;
10088;SDS011;51898;49.864;8.550;2023-02-12T19:23:22;36.07;;;17.23;;
10088;SDS011;51898;49.864;8.550;2023-02-12T19:26:24;32.00;;;17.17;;
10088;SDS011;51898;49.864;8.550;2023-02-12T19:29:27;25.57;;;14.50;;
10088;SDS011;51898;49.864;8.550;2023-02-12T19:32:29;34.93;;;16.87;;
10088;SDS011;51898;49.864;8.550;2023-02-12T19:35:31;25.97;;;16.03;;
10088;SDS011;51898;49.864;8.550;2023-02-12T19:38:34;28.60;;;15.53;;
10088;SDS011;51898;49.864;8.550;2023-02-12T19:41:35;27.87;;;15.20;;
10088;SDS011;51898;49.864;8.550;2023-02-12T19:44:41;26.87;;;15.20;;
10088;SDS011;51898;49.864;8.550;2023-02-12T19:47:43;26.73;;;14.93;;
10088;SDS011;51898;49.864;8.550;2023-02-12T19:50:45;29.50;;;14.73;;
10088;SDS011;51898;49.864;8.550;2023-02-12T19:53:47;27.70;;;14.40;;
10088;SDS011;51898;49.864;8.550;2023-02-12T19:56:50;24.87;;;14.67;;
10088;SDS011;51898;49.864;8.550;2023-02-12T19:59:53;28.67;;;15.27;;
10088;SDS011;51898;49.864;8.550;2023-02-12T20:02:54;26.63;;;15.23;;
10088;SDS011;51898;49.864;8.550;2023-02-12T20:06:03;26.27;;;15.47;;